createdAt,value
2022-10-16T00:02:00.109Z,64.05
2022-10-16T00:07:03.176Z,64.33
2022-10-16T00:12:08.047Z,63.88
2022-10-16T00:17:10.300Z,63.89
2022-10-16T00:22:12.521Z,64.16
2022-10-16T00:27:14.710Z,64.20
2022-10-16T00:32:16.950Z,63.92
2022-10-16T00:37:19.154Z,63.88
2022-10-16T00:42:21.407Z,63.92
2022-10-16T00:47:33.720Z,64.61
2022-10-16T00:52:36.615Z,65.12
2022-10-16T00:57:40.510Z,64.97
2022-10-16T01:02:42.935Z,64.78
2022-10-16T01:08:09.526Z,65.30
2022-10-16T01:13:17.413Z,65.11
2022-10-16T01:18:30.909Z,65.04
2022-10-16T01:24:02.133Z,65.07
2022-10-16T01:29:29.696Z,65.10
2022-10-16T01:34:48.041Z,64.82
2022-10-16T01:39:52.463Z,64.85
2022-10-16T01:44:56.553Z,65.11
2022-10-16T01:50:01.750Z,65.03
2022-10-16T01:55:07.821Z,65.45
2022-10-16T02:00:14.501Z,65.63
2022-10-16T02:05:20.523Z,66.01
2022-10-16T02:10:23.386Z,65.24
2022-10-16T02:15:25.659Z,65.47
2022-10-16T02:20:33.694Z,65.81
2022-10-16T02:25:43.460Z,65.79
2022-10-16T02:30:52.174Z,65.91
2022-10-16T02:35:55.943Z,65.88
2022-10-16T02:40:58.412Z,66.29
2022-10-16T02:46:00.909Z,66.12
2022-10-16T02:51:03.204Z,66.13
2022-10-16T02:56:05.678Z,66.37
2022-10-16T03:01:08.425Z,66.27
2022-10-16T03:06:10.738Z,66.83
2022-10-16T03:11:12.929Z,66.29
2022-10-16T03:16:15.276Z,66.72
2022-10-16T03:21:18.218Z,66.86
2022-10-16T03:26:20.438Z,66.56
2022-10-16T03:31:23.240Z,66.84
2022-10-16T03:36:25.610Z,66.51
2022-10-16T03:41:27.803Z,66.86
2022-10-16T03:46:30.880Z,67.68
2022-10-16T03:51:33.185Z,66.83
2022-10-16T03:56:35.491Z,68.04
2022-10-16T04:01:37.810Z,67.16
2022-10-16T04:06:40.152Z,66.47
2022-10-16T04:11:42.390Z,65.97
2022-10-16T04:16:44.631Z,65.67
2022-10-16T04:21:47.376Z,65.60
2022-10-16T04:26:49.650Z,65.85
2022-10-16T04:31:52.010Z,66.22
2022-10-16T04:36:54.312Z,66.17
2022-10-16T04:41:56.901Z,66.37
2022-10-16T04:46:59.319Z,66.55
2022-10-16T04:52:01.693Z,66.10
2022-10-16T04:57:04.021Z,66.67
2022-10-16T05:02:06.373Z,66.72
2022-10-16T05:07:08.713Z,66.05
2022-10-16T05:12:11.002Z,66.16
2022-10-16T05:17:13.578Z,66.21
2022-10-16T05:22:16.040Z,66.23
2022-10-16T05:27:21.495Z,66.13
2022-10-16T05:32:23.853Z,66.11
2022-10-16T05:37:26.298Z,65.86
2022-10-16T05:42:29.149Z,65.74
2022-10-16T05:47:31.802Z,65.70
2022-10-16T05:52:34.218Z,65.38
2022-10-16T05:57:36.632Z,65.41
2022-10-16T06:02:39.456Z,65.38
2022-10-16T06:07:41.954Z,65.34
2022-10-16T06:12:44.730Z,64.99
2022-10-16T06:17:47.060Z,64.78
2022-10-16T06:22:49.446Z,64.79
2022-10-16T06:27:51.705Z,64.48
2022-10-16T06:38:01.537Z,64.65
2022-10-16T06:43:04.006Z,64.21
2022-10-16T06:48:06.229Z,63.94
2022-10-16T06:53:08.465Z,63.97
2022-10-16T06:58:10.847Z,64.00
2022-10-16T07:03:13.694Z,64.01
2022-10-16T07:08:15.900Z,63.92
2022-10-16T07:13:18.178Z,64.38
2022-10-16T07:18:20.633Z,64.66
2022-10-16T07:23:23.173Z,63.56
2022-10-16T07:28:25.585Z,63.03
2022-10-16T07:33:28.006Z,63.07
2022-10-16T07:38:30.378Z,62.30
2022-10-16T07:43:32.879Z,61.79
2022-10-16T07:48:37.126Z,60.92
2022-10-16T07:53:39.557Z,60.54
2022-10-16T07:58:42.335Z,60.33
2022-10-16T08:03:52.400Z,60.09
2022-10-16T08:08:54.680Z,60.32
2022-10-16T08:13:56.966Z,60.10
2022-10-16T08:18:59.312Z,59.50
2022-10-16T08:24:02.113Z,59.30
2022-10-16T08:29:04.465Z,58.91
2022-10-16T08:34:07.055Z,58.66
2022-10-16T08:39:09.390Z,58.44
2022-10-16T08:44:43.263Z,58.12
2022-10-16T08:50:02.168Z,57.84
2022-10-16T08:55:05.894Z,57.68
2022-10-16T09:00:15.137Z,57.76
2022-10-16T09:05:35.660Z,57.49
2022-10-16T09:10:59.385Z,57.04
2022-10-16T09:16:23.230Z,56.90
2022-10-16T09:21:30.392Z,56.20
2022-10-16T09:26:35.308Z,56.01
2022-10-16T09:31:38.909Z,55.65
2022-10-16T09:36:45.611Z,54.86
2022-10-16T09:41:48.186Z,54.86
2022-10-16T09:46:50.564Z,54.67
2022-10-16T09:52:04.974Z,54.71
2022-10-16T09:57:09.182Z,54.73
2022-10-16T10:02:16.305Z,54.60
2022-10-16T10:07:22.645Z,54.71
2022-10-16T10:12:30.369Z,54.75
2022-10-16T10:17:32.870Z,54.62
2022-10-16T10:22:45.815Z,54.76
2022-10-16T10:28:00.278Z,54.39
2022-10-16T10:33:30.061Z,53.99
2022-10-16T10:39:05.160Z,53.48
2022-10-16T10:44:10.284Z,53.53
2022-10-16T10:49:49.545Z,53.30
2022-10-16T10:55:13.014Z,53.21
2022-10-16T11:00:37.216Z,53.06
2022-10-16T11:05:45.910Z,52.42
2022-10-16T11:10:51.137Z,52.70
2022-10-16T11:15:58.725Z,52.37
2022-10-16T11:21:12.013Z,52.13
2022-10-16T11:26:22.711Z,51.17
2022-10-16T11:31:28.253Z,50.18
2022-10-16T11:36:43.938Z,49.48
2022-10-16T11:41:55.653Z,49.61
2022-10-16T11:47:54.038Z,49.47
2022-10-16T11:52:46.080Z,49.34
2022-10-16T11:58:27.806Z,49.46
2022-10-16T12:03:50.762Z,48.57
2022-10-16T12:08:55.625Z,48.63
2022-10-16T12:14:12.361Z,47.35
2022-10-16T12:19:17.723Z,47.62
2022-10-16T12:24:39.995Z,47.53
2022-10-16T12:29:46.206Z,46.76
2022-10-16T12:34:49.490Z,46.25
2022-10-16T12:39:55.076Z,45.80
2022-10-16T12:44:57.743Z,46.05
2022-10-16T12:50:04.176Z,46.37
2022-10-16T12:55:18.881Z,46.04
2022-10-16T13:00:54.897Z,46.21
2022-10-16T13:06:23.011Z,46.29
2022-10-16T13:12:03.593Z,46.51
2022-10-16T13:17:18.911Z,45.87
2022-10-16T13:22:23.947Z,45.75
2022-10-16T13:27:29.405Z,44.76
2022-10-16T13:32:32.534Z,44.93
2022-10-16T13:37:34.926Z,44.74
2022-10-16T13:42:37.228Z,44.93
2022-10-16T13:47:39.491Z,45.09
2022-10-16T13:52:42.699Z,44.61
2022-10-16T13:57:45.867Z,44.47
2022-10-16T14:02:53.795Z,44.06
2022-10-16T14:07:58.053Z,44.08
2022-10-16T14:13:03.957Z,43.86
2022-10-16T14:18:06.482Z,43.41
2022-10-16T14:23:23.940Z,43.37
2022-10-16T14:28:26.384Z,43.69
2022-10-16T14:33:31.567Z,43.52
2022-10-16T14:38:35.110Z,43.26
2022-10-16T14:43:42.982Z,42.80
2022-10-16T14:48:49.519Z,42.78
2022-10-16T14:53:57.708Z,42.73
2022-10-16T14:59:02.801Z,42.63
2022-10-16T15:04:05.577Z,42.91
2022-10-16T15:09:08.233Z,43.38
2022-10-16T15:19:17.427Z,44.93
2022-10-16T15:24:21.579Z,45.45
2022-10-16T15:29:24.188Z,45.74
2022-10-16T15:34:26.356Z,46.49
2022-10-16T15:39:28.982Z,46.66
2022-10-16T15:44:31.659Z,47.15
2022-10-16T15:49:34.103Z,47.42
2022-10-16T15:54:36.379Z,48.04
2022-10-16T15:59:38.914Z,48.39
2022-10-16T16:04:44.915Z,48.69
2022-10-16T16:09:47.481Z,49.17
2022-10-16T16:14:50.605Z,49.64
2022-10-16T16:19:53.060Z,49.78
2022-10-16T16:24:55.730Z,50.26
2022-10-16T16:29:57.979Z,50.35
2022-10-16T16:35:00.306Z,50.64
2022-10-16T16:40:02.685Z,51.09
2022-10-16T16:45:05.147Z,51.23
2022-10-16T16:50:08.411Z,51.65
2022-10-16T16:55:11.342Z,51.89
2022-10-16T17:00:14.501Z,52.25
2022-10-16T17:05:17.153Z,52.83
2022-10-16T17:10:19.813Z,53.13
2022-10-16T17:15:22.045Z,53.30
2022-10-16T17:20:24.412Z,53.63
2022-10-16T17:25:28.446Z,53.57
2022-10-16T17:30:31.775Z,53.74
2022-10-16T17:35:46.186Z,53.64
2022-10-16T17:40:48.580Z,53.92
2022-10-16T17:45:50.851Z,54.17
2022-10-16T17:50:53.459Z,54.37
2022-10-16T17:55:59.915Z,54.53
2022-10-16T18:01:03.066Z,54.58
2022-10-16T18:06:05.461Z,54.82
2022-10-16T18:11:07.687Z,55.09
2022-10-16T18:16:12.991Z,55.31
2022-10-16T18:21:17.462Z,55.29
2022-10-16T18:26:21.613Z,55.64
2022-10-16T18:31:26.723Z,55.70
2022-10-16T18:36:35.670Z,55.89
2022-10-16T18:41:40.601Z,55.93
2022-10-16T18:46:43.218Z,55.93
2022-10-16T18:51:47.978Z,56.51
2022-10-16T18:56:53.447Z,56.42
2022-10-16T19:01:55.768Z,56.86
2022-10-16T19:06:58.255Z,57.18
2022-10-16T19:12:00.781Z,58.95
2022-10-16T19:17:03.082Z,59.27
2022-10-16T19:22:23.957Z,58.54
2022-10-16T19:27:26.213Z,58.92
2022-10-16T19:32:28.956Z,59.58
2022-10-16T19:37:31.912Z,59.48
2022-10-16T19:42:34.646Z,59.32
2022-10-16T19:47:37.526Z,59.40
2022-10-16T19:52:40.028Z,59.81
2022-10-16T19:57:42.319Z,59.67
2022-10-16T20:02:44.803Z,59.94
2022-10-16T20:07:46.985Z,60.03
2022-10-16T20:12:49.331Z,60.39
2022-10-16T20:17:51.694Z,60.29
2022-10-16T20:22:53.990Z,60.23
2022-10-16T20:27:56.362Z,61.20
2022-10-16T20:32:58.586Z,60.98
2022-10-16T20:38:01.020Z,60.71
2022-10-16T20:43:03.859Z,61.14
2022-10-16T20:48:06.442Z,61.18
2022-10-16T20:53:09.543Z,61.08
2022-10-16T20:58:13.123Z,61.11
2022-10-16T21:03:15.350Z,61.71
2022-10-16T21:08:17.930Z,62.79
2022-10-16T21:13:20.157Z,62.51
2022-10-16T21:18:22.356Z,62.37
2022-10-16T21:23:24.651Z,62.15
2022-10-16T21:28:27.140Z,62.29
2022-10-16T21:33:29.596Z,62.55
2022-10-16T21:38:32.231Z,62.33
2022-10-16T21:43:34.745Z,62.38
2022-10-16T21:48:37.880Z,62.40
2022-10-16T21:53:40.786Z,62.76
2022-10-16T21:58:44.218Z,63.31
2022-10-16T22:03:47.925Z,64.72
2022-10-16T22:08:53.161Z,65.97
2022-10-16T22:13:56.833Z,65.18
2022-10-16T22:19:00.317Z,64.90
2022-10-16T22:24:02.747Z,65.00
2022-10-16T22:29:06.378Z,64.76
2022-10-16T22:34:10.871Z,64.82
2022-10-16T22:39:13.074Z,64.60
2022-10-16T22:44:15.298Z,64.80
2022-10-16T22:49:18.987Z,65.09
2022-10-16T22:54:21.210Z,65.06
2022-10-16T22:59:23.637Z,64.75
2022-10-16T23:04:26.045Z,65.56
2022-10-16T23:09:28.278Z,65.53
2022-10-16T23:14:30.554Z,65.73
2022-10-16T23:19:32.897Z,65.73
2022-10-16T23:24:35.641Z,65.77
2022-10-16T23:29:38.052Z,65.47
2022-10-16T23:34:40.339Z,65.62
2022-10-16T23:39:42.526Z,65.40
2022-10-16T23:44:44.735Z,65.60
2022-10-16T23:49:46.990Z,65.45
2022-10-16T23:54:49.594Z,65.78
2022-10-16T23:59:51.833Z,65.82
